Terminal Aerodrome Forecast
Issued by NWS Boston, MA

Current Version | Previous Version | Text Only | Print | Product List | Glossary On
Versions: 1 2 3 4 5 6 7 8 9 10 11 12 13 14 15 16 17 18 19 20 21 22 23 24 25 26 27 28 29 30 31 32 33 34 35 36 37 38 39 40 41 42 43 44 45
326 FTUS41 KBOX 242325 TAFBDL TAF KBDL 242325Z 2500/2606 32008KT P6SM BKN150 FM250200 VRB03KT P6SM SCT250 FM251500 20005KT P6SM VCSH BKN120 FM260500 23004KT P6SM BKN090=

USA.gov is the U.S. government's official web portal to all federal, state and local government web resources and services.